South Corinth, Vermont
Current Conditions -  °F | °C
As of 10:51 PM on Tuesday 27 Jan 2015 (Local Time) from KMPV Reporting Station
Light Snow Light Snow  
Wind Chill: -7°   Ceiling: 4100
Heat Index:   Visibility: 3mi
Dew Point:   Wind: 8mph
Humidity: 76%   Direction: 330°NNW
Pressure: 29.82"   Gusts: NA
Location:  44.0089°N, 72.1564°W
Report Text: KMPV 280351Z AUTO 33007KT 3SM -SN FEW028 BKN041 OVC055 M14/M18 A2982 RMK AO2 SLP128 P0000 T11441178
Loading
Personal Weather Stations






























Interactive Weather Map New forecast layout! Learn more

10-Day Weather Forecast

Advertisements
Track Severe Weather on mobile